sensor_id;sensor_type;location;lat;lon;timestamp;temperature;humidity
38726;DHT22;24474;48.906;8.808;2022-12-29T00:01:31;9.30;99.90
38726;DHT22;24474;48.906;8.808;2022-12-29T00:03:57;9.40;99.90
38726;DHT22;24474;48.906;8.808;2022-12-29T00:06:23;9.50;99.90
38726;DHT22;24474;48.906;8.808;2022-12-29T00:08:49;9.40;99.90
38726;DHT22;24474;48.906;8.808;2022-12-29T00:11:20;9.40;99.90
38726;DHT22;24474;48.906;8.808;2022-12-29T00:13:50;9.50;99.90
38726;DHT22;24474;48.906;8.808;2022-12-29T00:16:35;9.50;99.90
38726;DHT22;24474;48.906;8.808;2022-12-29T00:19:02;9.50;99.90
38726;DHT22;24474;48.906;8.808;2022-12-29T00:21:27;9.50;99.90
38726;DHT22;24474;48.906;8.808;2022-12-29T00:24:17;9.50;99.90
38726;DHT22;24474;48.906;8.808;2022-12-29T00:27:19;9.50;99.90
38726;DHT22;24474;48.906;8.808;2022-12-29T00:30:08;9.50;99.90
38726;DHT22;24474;48.906;8.808;2022-12-29T00:32:53;9.60;99.90
38726;DHT22;24474;48.906;8.808;2022-12-29T00:35:41;9.60;99.90
38726;DHT22;24474;48.906;8.808;2022-12-29T00:38:08;9.60;99.90
38726;DHT22;24474;48.906;8.808;2022-12-29T00:40:54;9.60;99.90
38726;DHT22;24474;48.906;8.808;2022-12-29T00:43:38;9.60;99.90
38726;DHT22;24474;48.906;8.808;2022-12-29T00:46:22;9.60;99.90
38726;DHT22;24474;48.906;8.808;2022-12-29T00:48:48;9.60;99.90
38726;DHT22;24474;48.906;8.808;2022-12-29T00:51:31;9.60;99.90
38726;DHT22;24474;48.906;8.808;2022-12-29T00:53:57;9.60;99.90
38726;DHT22;24474;48.906;8.808;2022-12-29T00:56:23;9.60;99.90
38726;DHT22;24474;48.906;8.808;2022-12-29T00:58:48;9.60;99.90
38726;DHT22;24474;48.906;8.808;2022-12-29T01:01:14;9.60;99.90
38726;DHT22;24474;48.906;8.808;2022-12-29T01:03:40;9.70;99.90
38726;DHT22;24474;48.906;8.808;2022-12-29T01:06:08;9.70;99.90
38726;DHT22;24474;48.906;8.808;2022-12-29T01:08:34;9.80;99.90
38726;DHT22;24474;48.906;8.808;2022-12-29T01:11:02;9.90;99.90
38726;DHT22;24474;48.906;8.808;2022-12-29T01:13:28;9.80;99.90
38726;DHT22;24474;48.906;8.808;2022-12-29T01:15:55;9.90;99.90
38726;DHT22;24474;48.906;8.808;2022-12-29T01:18:21;9.90;99.90
38726;DHT22;24474;48.906;8.808;2022-12-29T01:20:48;9.80;99.90
38726;DHT22;24474;48.906;8.808;2022-12-29T01:23:13;9.90;99.90
38726;DHT22;24474;48.906;8.808;2022-12-29T01:25:39;9.80;99.90
38726;DHT22;24474;48.906;8.808;2022-12-29T01:28:05;9.90;99.90
38726;DHT22;24474;48.906;8.808;2022-12-29T01:30:32;9.80;99.90
38726;DHT22;24474;48.906;8.808;2022-12-29T01:32:58;9.80;99.90
38726;DHT22;24474;48.906;8.808;2022-12-29T01:35:24;9.70;99.90
38726;DHT22;24474;48.906;8.808;2022-12-29T01:37:49;9.70;99.90
38726;DHT22;24474;48.906;8.808;2022-12-29T01:40:15;9.70;99.90
38726;DHT22;24474;48.906;8.808;2022-12-29T01:42:41;9.80;99.90
38726;DHT22;24474;48.906;8.808;2022-12-29T01:45:15;9.80;99.90
38726;DHT22;24474;48.906;8.808;2022-12-29T01:47:57;9.70;99.90
38726;DHT22;24474;48.906;8.808;2022-12-29T01:50:33;9.70;99.90
38726;DHT22;24474;48.906;8.808;2022-12-29T01:53:10;9.80;99.90
38726;DHT22;24474;48.906;8.808;2022-12-29T01:55:54;9.80;99.90
38726;DHT22;24474;48.906;8.808;2022-12-29T01:58:22;10.00;99.90
38726;DHT22;24474;48.906;8.808;2022-12-29T02:00:50;9.80;99.90
38726;DHT22;24474;48.906;8.808;2022-12-29T02:03:17;9.90;99.90
38726;DHT22;24474;48.906;8.808;2022-12-29T02:06:10;10.00;99.90
38726;DHT22;24474;48.906;8.808;2022-12-29T02:08:38;10.20;99.90
38726;DHT22;24474;48.906;8.808;2022-12-29T02:11:04;10.20;99.90
38726;DHT22;24474;48.906;8.808;2022-12-29T02:13:30;10.30;99.90
38726;DHT22;24474;48.906;8.808;2022-12-29T02:30:43;10.40;99.90
38726;DHT22;24474;48.906;8.808;2022-12-29T02:42:03;10.70;99.90
38726;DHT22;24474;48.906;8.808;2022-12-29T02:49:59;10.60;99.90
38726;DHT22;24474;48.906;8.808;2022-12-29T02:52:31;10.60;99.90
38726;DHT22;24474;48.906;8.808;2022-12-29T02:54:59;10.60;99.90
38726;DHT22;24474;48.906;8.808;2022-12-29T03:07:54;10.90;99.90
38726;DHT22;24474;48.906;8.808;2022-12-29T03:10:41;10.90;99.90
38726;DHT22;24474;48.906;8.808;2022-12-29T03:16:40;10.90;99.90
38726;DHT22;24474;48.906;8.808;2022-12-29T03:19:19;11.00;99.90
38726;DHT22;24474;48.906;8.808;2022-12-29T03:21:50;11.00;99.90
38726;DHT22;24474;48.906;8.808;2022-12-29T03:24:39;11.00;99.90
38726;DHT22;24474;48.906;8.808;2022-12-29T03:27:07;11.00;99.90
38726;DHT22;24474;48.906;8.808;2022-12-29T03:29:39;11.00;99.90
38726;DHT22;24474;48.906;8.808;2022-12-29T03:32:08;11.10;99.90
38726;DHT22;24474;48.906;8.808;2022-12-29T03:34:35;11.00;99.90
38726;DHT22;24474;48.906;8.808;2022-12-29T03:37:11;11.10;99.90
38726;DHT22;24474;48.906;8.808;2022-12-29T03:39:38;11.00;99.90
38726;DHT22;24474;48.906;8.808;2022-12-29T03:42:13;11.00;99.90
38726;DHT22;24474;48.906;8.808;2022-12-29T03:44:41;11.00;99.90
38726;DHT22;24474;48.906;8.808;2022-12-29T03:47:09;11.00;99.90
38726;DHT22;24474;48.906;8.808;2022-12-29T03:49:35;11.00;99.90
38726;DHT22;24474;48.906;8.808;2022-12-29T03:52:00;11.10;99.90
38726;DHT22;24474;48.906;8.808;2022-12-29T03:54:26;11.00;99.90
38726;DHT22;24474;48.906;8.808;2022-12-29T03:56:52;11.00;99.90
38726;DHT22;24474;48.906;8.808;2022-12-29T03:59:17;11.00;99.90
38726;DHT22;24474;48.906;8.808;2022-12-29T04:01:43;10.90;99.90
38726;DHT22;24474;48.906;8.808;2022-12-29T04:04:09;10.90;99.90
38726;DHT22;24474;48.906;8.808;2022-12-29T04:06:34;10.90;99.90
38726;DHT22;24474;48.906;8.808;2022-12-29T04:09:00;10.90;99.90
38726;DHT22;24474;48.906;8.808;2022-12-29T04:11:26;10.90;99.90
38726;DHT22;24474;48.906;8.808;2022-12-29T04:13:52;10.90;99.90
38726;DHT22;24474;48.906;8.808;2022-12-29T04:16:18;10.90;99.90
38726;DHT22;24474;48.906;8.808;2022-12-29T04:18:43;11.10;99.90
38726;DHT22;24474;48.906;8.808;2022-12-29T04:21:09;11.10;99.90
38726;DHT22;24474;48.906;8.808;2022-12-29T04:23:36;11.10;99.90
38726;DHT22;24474;48.906;8.808;2022-12-29T04:26:03;11.10;99.90
38726;DHT22;24474;48.906;8.808;2022-12-29T04:28:29;11.00;99.90
38726;DHT22;24474;48.906;8.808;2022-12-29T04:30:55;11.00;99.90
38726;DHT22;24474;48.906;8.808;2022-12-29T04:33:21;11.00;99.90
38726;DHT22;24474;48.906;8.808;2022-12-29T04:35:47;11.00;99.90
38726;DHT22;24474;48.906;8.808;2022-12-29T04:38:13;10.90;99.90
38726;DHT22;24474;48.906;8.808;2022-12-29T04:40:40;10.90;99.90
38726;DHT22;24474;48.906;8.808;2022-12-29T04:43:07;10.80;99.90
38726;DHT22;24474;48.906;8.808;2022-12-29T04:45:33;10.80;99.90
38726;DHT22;24474;48.906;8.808;2022-12-29T04:47:59;10.80;99.90
38726;DHT22;24474;48.906;8.808;2022-12-29T04:50:25;10.80;99.90
38726;DHT22;24474;48.906;8.808;2022-12-29T04:52:51;10.70;99.90
38726;DHT22;24474;48.906;8.808;2022-12-29T04:55:17;10.70;99.90
38726;DHT22;24474;48.906;8.808;2022-12-29T04:57:45;10.70;99.90
38726;DHT22;24474;48.906;8.808;2022-12-29T05:00:11;10.70;99.90
38726;DHT22;24474;48.906;8.808;2022-12-29T05:02:37;10.70;99.90
38726;DHT22;24474;48.906;8.808;2022-12-29T05:05:04;10.70;99.90
38726;DHT22;24474;48.906;8.808;2022-12-29T05:07:30;10.60;99.90
38726;DHT22;24474;48.906;8.808;2022-12-29T05:09:55;10.60;99.90
38726;DHT22;24474;48.906;8.808;2022-12-29T05:12:21;10.60;99.90
38726;DHT22;24474;48.906;8.808;2022-12-29T05:14:47;10.50;99.90
38726;DHT22;24474;48.906;8.808;2022-12-29T05:17:12;10.60;99.90
38726;DHT22;24474;48.906;8.808;2022-12-29T05:19:38;10.60;99.90
38726;DHT22;24474;48.906;8.808;2022-12-29T05:22:04;10.50;99.90
38726;DHT22;24474;48.906;8.808;2022-12-29T05:24:30;10.50;99.90
38726;DHT22;24474;48.906;8.808;2022-12-29T05:26:55;10.50;99.90
38726;DHT22;24474;48.906;8.808;2022-12-29T05:29:21;10.50;99.90
38726;DHT22;24474;48.906;8.808;2022-12-29T05:31:47;10.50;99.90
38726;DHT22;24474;48.906;8.808;2022-12-29T05:34:12;10.50;99.90
38726;DHT22;24474;48.906;8.808;2022-12-29T05:36:38;10.50;99.90
38726;DHT22;24474;48.906;8.808;2022-12-29T05:39:05;10.50;99.90
38726;DHT22;24474;48.906;8.808;2022-12-29T05:41:33;10.50;99.90
38726;DHT22;24474;48.906;8.808;2022-12-29T05:43:59;10.60;99.90
38726;DHT22;24474;48.906;8.808;2022-12-29T05:46:24;10.60;99.90
38726;DHT22;24474;48.906;8.808;2022-12-29T05:48:50;10.60;99.90
38726;DHT22;24474;48.906;8.808;2022-12-29T05:51:15;10.60;99.90
38726;DHT22;24474;48.906;8.808;2022-12-29T05:53:41;10.60;99.90
38726;DHT22;24474;48.906;8.808;2022-12-29T05:56:07;10.50;99.90
38726;DHT22;24474;48.906;8.808;2022-12-29T05:58:33;10.60;99.90
38726;DHT22;24474;48.906;8.808;2022-12-29T06:00:59;10.60;99.90
38726;DHT22;24474;48.906;8.808;2022-12-29T06:03:24;10.60;99.90
38726;DHT22;24474;48.906;8.808;2022-12-29T06:05:50;10.60;99.90
38726;DHT22;24474;48.906;8.808;2022-12-29T06:08:15;10.60;99.90
38726;DHT22;24474;48.906;8.808;2022-12-29T06:10:41;10.60;99.90
38726;DHT22;24474;48.906;8.808;2022-12-29T06:13:07;10.60;99.90
38726;DHT22;24474;48.906;8.808;2022-12-29T06:15:33;10.60;99.90
38726;DHT22;24474;48.906;8.808;2022-12-29T06:17:59;10.60;99.90
38726;DHT22;24474;48.906;8.808;2022-12-29T06:20:24;10.60;99.90
38726;DHT22;24474;48.906;8.808;2022-12-29T06:22:50;10.60;99.90
38726;DHT22;24474;48.906;8.808;2022-12-29T06:25:16;10.60;99.90
38726;DHT22;24474;48.906;8.808;2022-12-29T06:27:42;10.60;99.90
38726;DHT22;24474;48.906;8.808;2022-12-29T06:30:09;10.60;99.90
38726;DHT22;24474;48.906;8.808;2022-12-29T06:32:35;10.60;99.90
38726;DHT22;24474;48.906;8.808;2022-12-29T06:35:01;10.60;99.90
38726;DHT22;24474;48.906;8.808;2022-12-29T06:37:27;10.60;99.90
38726;DHT22;24474;48.906;8.808;2022-12-29T06:39:53;10.60;99.90
38726;DHT22;24474;48.906;8.808;2022-12-29T06:42:18;10.70;99.90
38726;DHT22;24474;48.906;8.808;2022-12-29T06:44:44;10.60;99.90
38726;DHT22;24474;48.906;8.808;2022-12-29T06:47:10;10.60;99.90
38726;DHT22;24474;48.906;8.808;2022-12-29T06:49:36;10.60;99.90
38726;DHT22;24474;48.906;8.808;2022-12-29T06:52:02;10.60;99.90
38726;DHT22;24474;48.906;8.808;2022-12-29T06:54:32;10.70;99.90
38726;DHT22;24474;48.906;8.808;2022-12-29T06:56:59;10.70;99.90
38726;DHT22;24474;48.906;8.808;2022-12-29T06:59:25;10.70;99.90
38726;DHT22;24474;48.906;8.808;2022-12-29T07:01:51;10.70;99.90
38726;DHT22;24474;48.906;8.808;2022-12-29T07:04:17;10.70;99.90
38726;DHT22;24474;48.906;8.808;2022-12-29T07:06:43;10.70;99.90
38726;DHT22;24474;48.906;8.808;2022-12-29T07:09:09;10.70;99.90
38726;DHT22;24474;48.906;8.808;2022-12-29T07:11:35;10.70;99.90
38726;DHT22;24474;48.906;8.808;2022-12-29T07:14:01;10.80;99.90
38726;DHT22;24474;48.906;8.808;2022-12-29T07:16:27;10.80;99.90
38726;DHT22;24474;48.906;8.808;2022-12-29T07:18:55;10.80;99.90
38726;DHT22;24474;48.906;8.808;2022-12-29T07:21:20;10.80;99.90
38726;DHT22;24474;48.906;8.808;2022-12-29T07:23:46;10.90;99.90
38726;DHT22;24474;48.906;8.808;2022-12-29T07:26:14;10.80;99.90
38726;DHT22;24474;48.906;8.808;2022-12-29T07:28:39;10.80;99.90
38726;DHT22;24474;48.906;8.808;2022-12-29T07:31:19;10.90;99.90
38726;DHT22;24474;48.906;8.808;2022-12-29T07:33:45;11.00;99.90
38726;DHT22;24474;48.906;8.808;2022-12-29T07:36:12;11.00;99.90
38726;DHT22;24474;48.906;8.808;2022-12-29T07:38:38;11.00;99.90
38726;DHT22;24474;48.906;8.808;2022-12-29T07:41:04;11.10;99.90
38726;DHT22;24474;48.906;8.808;2022-12-29T07:43:29;11.10;99.90
38726;DHT22;24474;48.906;8.808;2022-12-29T07:45:55;11.10;99.90
38726;DHT22;24474;48.906;8.808;2022-12-29T07:48:22;11.20;99.90
38726;DHT22;24474;48.906;8.808;2022-12-29T07:50:50;11.10;99.90
38726;DHT22;24474;48.906;8.808;2022-12-29T07:53:18;11.20;99.90
38726;DHT22;24474;48.906;8.808;2022-12-29T07:55:45;11.20;99.90
38726;DHT22;24474;48.906;8.808;2022-12-29T07:58:14;11.20;99.90
38726;DHT22;24474;48.906;8.808;2022-12-29T08:00:40;11.30;99.90
38726;DHT22;24474;48.906;8.808;2022-12-29T08:03:06;11.30;99.90
38726;DHT22;24474;48.906;8.808;2022-12-29T08:05:34;11.30;99.90
38726;DHT22;24474;48.906;8.808;2022-12-29T08:08:00;11.40;99.90
38726;DHT22;24474;48.906;8.808;2022-12-29T08:10:25;11.40;99.90
38726;DHT22;24474;48.906;8.808;2022-12-29T08:12:51;11.40;99.90
38726;DHT22;24474;48.906;8.808;2022-12-29T08:15:19;11.50;99.90
38726;DHT22;24474;48.906;8.808;2022-12-29T08:17:46;11.50;99.90
38726;DHT22;24474;48.906;8.808;2022-12-29T08:20:12;11.60;99.90
38726;DHT22;24474;48.906;8.808;2022-12-29T08:22:37;11.50;99.90
38726;DHT22;24474;48.906;8.808;2022-12-29T08:25:03;11.50;99.90
38726;DHT22;24474;48.906;8.808;2022-12-29T08:27:29;11.60;99.90
38726;DHT22;24474;48.906;8.808;2022-12-29T08:29:55;11.50;99.90
38726;DHT22;24474;48.906;8.808;2022-12-29T08:32:20;11.50;99.90
38726;DHT22;24474;48.906;8.808;2022-12-29T08:34:46;11.60;99.90
38726;DHT22;24474;48.906;8.808;2022-12-29T08:37:12;11.60;99.90
38726;DHT22;24474;48.906;8.808;2022-12-29T08:39:37;11.70;99.90
38726;DHT22;24474;48.906;8.808;2022-12-29T08:42:03;11.70;99.90
38726;DHT22;24474;48.906;8.808;2022-12-29T08:44:29;11.70;99.90
38726;DHT22;24474;48.906;8.808;2022-12-29T08:46:54;11.70;99.90
38726;DHT22;24474;48.906;8.808;2022-12-29T08:49:20;11.70;99.90
38726;DHT22;24474;48.906;8.808;2022-12-29T08:51:45;11.80;99.90
38726;DHT22;24474;48.906;8.808;2022-12-29T08:54:11;11.90;99.90
38726;DHT22;24474;48.906;8.808;2022-12-29T08:56:37;11.90;99.90
38726;DHT22;24474;48.906;8.808;2022-12-29T08:59:02;11.90;99.90
38726;DHT22;24474;48.906;8.808;2022-12-29T09:01:28;11.90;99.90
38726;DHT22;24474;48.906;8.808;2022-12-29T09:03:55;12.00;99.90
38726;DHT22;24474;48.906;8.808;2022-12-29T09:06:21;12.00;99.90
38726;DHT22;24474;48.906;8.808;2022-12-29T09:08:47;12.00;99.90
38726;DHT22;24474;48.906;8.808;2022-12-29T09:11:18;12.00;99.90
38726;DHT22;24474;48.906;8.808;2022-12-29T09:13:44;12.00;99.90
38726;DHT22;24474;48.906;8.808;2022-12-29T09:16:11;12.10;99.90
38726;DHT22;24474;48.906;8.808;2022-12-29T09:18:36;12.10;99.90
38726;DHT22;24474;48.906;8.808;2022-12-29T09:21:04;12.10;99.90
38726;DHT22;24474;48.906;8.808;2022-12-29T09:27:20;12.20;99.90
38726;DHT22;24474;48.906;8.808;2022-12-29T09:29:45;12.20;99.90
38726;DHT22;24474;48.906;8.808;2022-12-29T09:32:11;12.20;99.90
38726;DHT22;24474;48.906;8.808;2022-12-29T09:34:37;12.30;99.90
38726;DHT22;24474;48.906;8.808;2022-12-29T09:37:03;12.30;99.90
38726;DHT22;24474;48.906;8.808;2022-12-29T09:39:28;12.40;99.90
38726;DHT22;24474;48.906;8.808;2022-12-29T09:42:06;12.50;99.90
38726;DHT22;24474;48.906;8.808;2022-12-29T09:47:13;12.40;99.90
38726;DHT22;24474;48.906;8.808;2022-12-29T09:49:44;12.40;99.90
38726;DHT22;24474;48.906;8.808;2022-12-29T09:52:24;12.40;99.90
38726;DHT22;24474;48.906;8.808;2022-12-29T09:55:19;12.40;99.90
38726;DHT22;24474;48.906;8.808;2022-12-29T09:57:57;12.50;99.90
38726;DHT22;24474;48.906;8.808;2022-12-29T10:00:33;12.50;99.90
38726;DHT22;24474;48.906;8.808;2022-12-29T10:03:14;12.50;99.90
38726;DHT22;24474;48.906;8.808;2022-12-29T10:25:24;12.80;99.90
38726;DHT22;24474;48.906;8.808;2022-12-29T10:27:53;12.80;99.90
38726;DHT22;24474;48.906;8.808;2022-12-29T10:30:23;12.80;99.90
38726;DHT22;24474;48.906;8.808;2022-12-29T10:32:50;12.80;99.90
38726;DHT22;24474;48.906;8.808;2022-12-29T10:35:22;12.80;99.90
38726;DHT22;24474;48.906;8.808;2022-12-29T10:38:03;12.80;99.90
38726;DHT22;24474;48.906;8.808;2022-12-29T10:40:38;12.80;99.90
38726;DHT22;24474;48.906;8.808;2022-12-29T10:43:29;12.90;99.90
38726;DHT22;24474;48.906;8.808;2022-12-29T10:46:01;12.90;99.90
38726;DHT22;24474;48.906;8.808;2022-12-29T10:48:33;13.00;99.90
38726;DHT22;24474;48.906;8.808;2022-12-29T10:51:01;13.10;99.90
38726;DHT22;24474;48.906;8.808;2022-12-29T10:53:46;13.20;99.90
38726;DHT22;24474;48.906;8.808;2022-12-29T10:56:39;13.30;99.90
38726;DHT22;24474;48.906;8.808;2022-12-29T11:07:11;13.40;99.90
38726;DHT22;24474;48.906;8.808;2022-12-29T11:09:38;13.40;99.90
38726;DHT22;24474;48.906;8.808;2022-12-29T11:12:27;13.40;99.90
38726;DHT22;24474;48.906;8.808;2022-12-29T11:15:20;13.40;99.90
38726;DHT22;24474;48.906;8.808;2022-12-29T11:17:49;13.40;99.90
38726;DHT22;24474;48.906;8.808;2022-12-29T11:20:38;13.40;99.90
38726;DHT22;24474;48.906;8.808;2022-12-29T11:28:42;13.30;99.90
38726;DHT22;24474;48.906;8.808;2022-12-29T11:31:09;13.30;99.90
38726;DHT22;24474;48.906;8.808;2022-12-29T11:33:37;13.30;99.90
38726;DHT22;24474;48.906;8.808;2022-12-29T11:36:19;13.30;99.90
38726;DHT22;24474;48.906;8.808;2022-12-29T11:38:50;13.30;99.90
38726;DHT22;24474;48.906;8.808;2022-12-29T11:41:24;13.20;99.90
38726;DHT22;24474;48.906;8.808;2022-12-29T11:43:52;13.20;99.90
38726;DHT22;24474;48.906;8.808;2022-12-29T11:46:32;13.20;99.90
38726;DHT22;24474;48.906;8.808;2022-12-29T11:49:01;13.10;99.90
38726;DHT22;24474;48.906;8.808;2022-12-29T11:51:29;12.90;99.90
38726;DHT22;24474;48.906;8.808;2022-12-29T11:53:58;13.00;99.90
38726;DHT22;24474;48.906;8.808;2022-12-29T11:56:39;12.90;99.90
38726;DHT22;24474;48.906;8.808;2022-12-29T12:01:50;12.90;99.90
38726;DHT22;24474;48.906;8.808;2022-12-29T12:04:19;13.00;99.90
38726;DHT22;24474;48.906;8.808;2022-12-29T12:07:00;13.00;99.90
38726;DHT22;24474;48.906;8.808;2022-12-29T12:09:32;13.00;99.90
38726;DHT22;24474;48.906;8.808;2022-12-29T12:12:01;13.00;99.90
38726;DHT22;24474;48.906;8.808;2022-12-29T12:14:36;13.10;99.90
38726;DHT22;24474;48.906;8.808;2022-12-29T12:17:14;13.10;99.90
38726;DHT22;24474;48.906;8.808;2022-12-29T12:22:44;13.20;99.90
38726;DHT22;24474;48.906;8.808;2022-12-29T12:25:36;13.10;99.90
38726;DHT22;24474;48.906;8.808;2022-12-29T12:28:11;13.10;99.90
38726;DHT22;24474;48.906;8.808;2022-12-29T12:30:44;13.00;99.90
38726;DHT22;24474;48.906;8.808;2022-12-29T12:34:00;13.00;99.90
38726;DHT22;24474;48.906;8.808;2022-12-29T12:39:06;12.80;99.90
38726;DHT22;24474;48.906;8.808;2022-12-29T12:47:22;12.80;99.90
38726;DHT22;24474;48.906;8.808;2022-12-29T12:52:57;12.80;99.90
38726;DHT22;24474;48.906;8.808;2022-12-29T13:01:14;12.80;99.90
38726;DHT22;24474;48.906;8.808;2022-12-29T13:14:47;13.00;99.90
38726;DHT22;24474;48.906;8.808;2022-12-29T13:17:38;13.00;99.90
38726;DHT22;24474;48.906;8.808;2022-12-29T13:22:45;12.90;99.90
38726;DHT22;24474;48.906;8.808;2022-12-29T13:30:45;12.90;99.90
38726;DHT22;24474;48.906;8.808;2022-12-29T13:33:26;12.80;99.90
38726;DHT22;24474;48.906;8.808;2022-12-29T13:36:08;12.80;99.90
38726;DHT22;24474;48.906;8.808;2022-12-29T13:38:47;12.80;99.90
38726;DHT22;24474;48.906;8.808;2022-12-29T13:43:54;12.70;99.90
38726;DHT22;24474;48.906;8.808;2022-12-29T13:46:29;12.70;99.90
38726;DHT22;24474;48.906;8.808;2022-12-29T13:49:05;12.60;99.90
38726;DHT22;24474;48.906;8.808;2022-12-29T13:51:33;12.60;99.90
38726;DHT22;24474;48.906;8.808;2022-12-29T13:54:19;12.60;99.90
38726;DHT22;24474;48.906;8.808;2022-12-29T13:59:51;12.60;99.90
38726;DHT22;24474;48.906;8.808;2022-12-29T14:07:45;12.50;99.90
38726;DHT22;24474;48.906;8.808;2022-12-29T14:13:15;12.50;99.90
38726;DHT22;24474;48.906;8.808;2022-12-29T14:15:53;12.50;99.90
38726;DHT22;24474;48.906;8.808;2022-12-29T14:18:21;12.40;99.90
38726;DHT22;24474;48.906;8.808;2022-12-29T14:28:34;12.40;99.90
38726;DHT22;24474;48.906;8.808;2022-12-29T14:36:41;12.30;99.90
38726;DHT22;24474;48.906;8.808;2022-12-29T14:39:31;12.30;99.90
38726;DHT22;24474;48.906;8.808;2022-12-29T14:45:02;12.30;99.90
38726;DHT22;24474;48.906;8.808;2022-12-29T14:47:31;12.30;99.90
38726;DHT22;24474;48.906;8.808;2022-12-29T14:50:38;12.30;99.90
38726;DHT22;24474;48.906;8.808;2022-12-29T14:53:06;12.20;99.90
38726;DHT22;24474;48.906;8.808;2022-12-29T14:55:55;12.20;99.90
38726;DHT22;24474;48.906;8.808;2022-12-29T15:04:00;12.00;99.90
38726;DHT22;24474;48.906;8.808;2022-12-29T15:06:30;11.90;99.90
38726;DHT22;24474;48.906;8.808;2022-12-29T15:14:23;11.50;99.90
38726;DHT22;24474;48.906;8.808;2022-12-29T15:16:49;11.30;99.90
38726;DHT22;24474;48.906;8.808;2022-12-29T15:19:22;11.20;99.90
38726;DHT22;24474;48.906;8.808;2022-12-29T15:21:49;11.20;99.90
38726;DHT22;24474;48.906;8.808;2022-12-29T15:24:15;11.10;99.90
38726;DHT22;24474;48.906;8.808;2022-12-29T15:26:51;11.00;99.90
38726;DHT22;24474;48.906;8.808;2022-12-29T15:32:26;10.80;99.90
38726;DHT22;24474;48.906;8.808;2022-12-29T15:34:55;10.80;99.90
38726;DHT22;24474;48.906;8.808;2022-12-29T15:37:27;10.80;99.90
38726;DHT22;24474;48.906;8.808;2022-12-29T15:39:55;10.80;99.90
38726;DHT22;24474;48.906;8.808;2022-12-29T15:42:45;10.80;99.90
38726;DHT22;24474;48.906;8.808;2022-12-29T15:45:14;10.70;99.90
38726;DHT22;24474;48.906;8.808;2022-12-29T15:47:42;10.60;99.90
38726;DHT22;24474;48.906;8.808;2022-12-29T15:52:46;10.50;99.90
38726;DHT22;24474;48.906;8.808;2022-12-29T15:55:30;10.60;99.90
38726;DHT22;24474;48.906;8.808;2022-12-29T15:57:58;10.50;99.90
38726;DHT22;24474;48.906;8.808;2022-12-29T16:00:31;10.50;99.90
38726;DHT22;24474;48.906;8.808;2022-12-29T16:03:01;10.50;99.90
38726;DHT22;24474;48.906;8.808;2022-12-29T16:05:39;10.50;99.90
38726;DHT22;24474;48.906;8.808;2022-12-29T16:08:28;10.40;99.90
38726;DHT22;24474;48.906;8.808;2022-12-29T16:10:55;10.40;99.90
38726;DHT22;24474;48.906;8.808;2022-12-29T16:13:37;10.30;99.90
38726;DHT22;24474;48.906;8.808;2022-12-29T16:16:18;10.30;99.90
38726;DHT22;24474;48.906;8.808;2022-12-29T16:18:44;10.30;99.90
38726;DHT22;24474;48.906;8.808;2022-12-29T16:21:25;10.30;99.90
38726;DHT22;24474;48.906;8.808;2022-12-29T16:23:53;10.30;99.90
38726;DHT22;24474;48.906;8.808;2022-12-29T16:26:22;10.30;99.90
38726;DHT22;24474;48.906;8.808;2022-12-29T16:28:52;10.20;99.90
38726;DHT22;24474;48.906;8.808;2022-12-29T16:31:25;10.20;99.90
38726;DHT22;24474;48.906;8.808;2022-12-29T16:33:55;10.10;99.90
38726;DHT22;24474;48.906;8.808;2022-12-29T16:36:26;10.10;99.90
38726;DHT22;24474;48.906;8.808;2022-12-29T16:39:18;10.10;99.90
38726;DHT22;24474;48.906;8.808;2022-12-29T16:41:47;10.10;99.90
38726;DHT22;24474;48.906;8.808;2022-12-29T16:49:23;10.00;99.90
38726;DHT22;24474;48.906;8.808;2022-12-29T16:51:51;10.00;99.90
38726;DHT22;24474;48.906;8.808;2022-12-29T16:54:35;10.00;99.90
38726;DHT22;24474;48.906;8.808;2022-12-29T16:57:01;10.00;99.90
38726;DHT22;24474;48.906;8.808;2022-12-29T16:59:40;10.00;99.90
38726;DHT22;24474;48.906;8.808;2022-12-29T17:02:19;9.90;99.90
38726;DHT22;24474;48.906;8.808;2022-12-29T17:04:45;10.00;99.90
38726;DHT22;24474;48.906;8.808;2022-12-29T17:07:18;10.00;99.90
38726;DHT22;24474;48.906;8.808;2022-12-29T17:09:47;9.90;99.90
38726;DHT22;24474;48.906;8.808;2022-12-29T17:12:19;9.90;99.90
38726;DHT22;24474;48.906;8.808;2022-12-29T17:14:55;9.90;99.90
38726;DHT22;24474;48.906;8.808;2022-12-29T17:17:39;9.80;99.90
38726;DHT22;24474;48.906;8.808;2022-12-29T17:20:16;9.80;99.90
38726;DHT22;24474;48.906;8.808;2022-12-29T17:22:42;9.80;99.90
38726;DHT22;24474;48.906;8.808;2022-12-29T17:25:16;9.90;99.90
38726;DHT22;24474;48.906;8.808;2022-12-29T17:30:31;9.80;99.90
38726;DHT22;24474;48.906;8.808;2022-12-29T17:33:00;9.80;99.90
38726;DHT22;24474;48.906;8.808;2022-12-29T17:35:29;9.80;99.90
38726;DHT22;24474;48.906;8.808;2022-12-29T17:37:55;9.70;99.90
38726;DHT22;24474;48.906;8.808;2022-12-29T17:40:23;9.70;99.90
38726;DHT22;24474;48.906;8.808;2022-12-29T17:53:03;9.70;99.90
38726;DHT22;24474;48.906;8.808;2022-12-29T17:55:30;9.70;99.90
38726;DHT22;24474;48.906;8.808;2022-12-29T18:01:01;9.50;99.90
38726;DHT22;24474;48.906;8.808;2022-12-29T18:03:32;9.50;99.90
38726;DHT22;24474;48.906;8.808;2022-12-29T18:05:59;9.50;99.90
38726;DHT22;24474;48.906;8.808;2022-12-29T18:08:25;9.50;99.90
38726;DHT22;24474;48.906;8.808;2022-12-29T18:10:53;9.50;99.90
38726;DHT22;24474;48.906;8.808;2022-12-29T18:13:24;9.40;99.90
38726;DHT22;24474;48.906;8.808;2022-12-29T18:15:51;9.40;99.90
38726;DHT22;24474;48.906;8.808;2022-12-29T18:18:22;9.40;99.90
38726;DHT22;24474;48.906;8.808;2022-12-29T18:20:50;9.30;99.90
38726;DHT22;24474;48.906;8.808;2022-12-29T18:23:25;9.30;99.90
38726;DHT22;24474;48.906;8.808;2022-12-29T18:28:25;9.30;99.90
38726;DHT22;24474;48.906;8.808;2022-12-29T18:30:52;9.30;99.90
38726;DHT22;24474;48.906;8.808;2022-12-29T18:33:19;9.30;99.90
38726;DHT22;24474;48.906;8.808;2022-12-29T18:35:57;9.30;99.90
38726;DHT22;24474;48.906;8.808;2022-12-29T18:38:23;9.20;99.90
38726;DHT22;24474;48.906;8.808;2022-12-29T18:40:49;9.20;99.90
38726;DHT22;24474;48.906;8.808;2022-12-29T18:43:17;9.20;99.90
38726;DHT22;24474;48.906;8.808;2022-12-29T18:45:44;9.20;99.90
38726;DHT22;24474;48.906;8.808;2022-12-29T18:48:14;9.20;99.90
38726;DHT22;24474;48.906;8.808;2022-12-29T18:50:40;9.10;99.90
38726;DHT22;24474;48.906;8.808;2022-12-29T18:53:11;9.10;99.90
38726;DHT22;24474;48.906;8.808;2022-12-29T18:55:39;9.10;99.90
38726;DHT22;24474;48.906;8.808;2022-12-29T18:58:05;9.10;99.90
38726;DHT22;24474;48.906;8.808;2022-12-29T19:00:31;9.00;99.90
38726;DHT22;24474;48.906;8.808;2022-12-29T19:02:56;9.00;99.90
38726;DHT22;24474;48.906;8.808;2022-12-29T19:05:33;9.00;99.90
38726;DHT22;24474;48.906;8.808;2022-12-29T19:10:35;8.90;99.90
38726;DHT22;24474;48.906;8.808;2022-12-29T19:13:01;9.00;99.90